UAAH/BXH METAR and TAF weather

Enter ICAO airport designator
Station Type Date Time Source
UAAH METAR 2020/01/21 09:30 UTC NOAA

UAAH 210930Z 26005MPS 9000 OVC006 M08/M09 Q1021 NOSIG RMK QBB180 QFE726/0968


Station Type Date Time Source
UAAH Decoded METAR 2020/01/21 09:30 UTC NOAA

Station name not available
Jan 21, 2020 - 04:30 AM EST / 2020.01.21 0930 UTC
Wind: from the W (260 degrees) at 11 MPH (10 KT):0
Visibility: 5 mile(s):0
Sky conditions: overcast
Temperature: 17 F (-8 C)
Windchill: 5 F (-15 C):1
Dew Point: 15 F (-9 C)
Relative Humidity: 92%
Pressure (altimeter): 30.15 in. Hg (1021 hPa)
ob: UAAH 210930Z 26005MPS 9000 OVC006 M08/M09 Q1021 NOSIG RMK QBB180 QFE726/0968
cycle: 9

Station Type Date Time Source
UAAH TAF 2016/09/21 12:09 UTC NOAA

TAF
AMD TAF
AMD UAAH 211506Z 2112/2124 36006MPS CAVOK

Example: see airport list